Time;durP1;ratioP1;P1;durP2;ratioP2;P2;SDS_P1;SDS_P2;PMS_P1;PMS_P2;Temp;Humidity;BMP_temperature;BMP_pressure;BME280_temperature;BME280_humidity;BME280_pressure;Samples;Min_cycle;Max_cycle;Signal;HPM_P1;HPM_P2
2022/08/09 00:02:07;;;;;;;7.50;4.50;;;16.10;99.90;;;;;;4985356;28;20301;-54
2022/08/09 00:04:33;;;;;;;5.72;4.05;;;16.10;99.90;;;;;;4985239;28;20046;-54
2022/08/09 00:07:00;;;;;;;5.75;4.18;;;16.10;99.90;;;;;;4992659;28;20099;-52
2022/08/09 00:09:26;;;;;;;5.90;3.78;;;16.10;99.90;;;;;;4998618;28;20124;-54
2022/08/09 00:11:52;;;;;;;7.57;4.60;;;16.00;99.90;;;;;;4984525;28;20409;-53
2022/08/09 00:14:18;;;;;;;7.18;4.22;;;16.00;99.90;;;;;;4984943;28;20074;-52
2022/08/09 00:16:44;;;;;;;5.40;3.70;;;15.90;99.90;;;;;;4984730;28;20077;-51
2022/08/09 00:19:10;;;;;;;5.55;3.72;;;16.00;99.90;;;;;;4982867;28;20482;-54
2022/08/09 00:21:37;;;;;;;7.65;3.97;;;16.00;99.90;;;;;;4985200;28;20039;-54
2022/08/09 00:24:03;;;;;;;6.22;4.00;;;16.00;99.90;;;;;;4984300;28;20097;-53
2022/08/09 00:26:29;;;;;;;5.47;3.50;;;15.90;99.90;;;;;;4984407;28;20121;-54
2022/08/09 00:28:56;;;;;;;6.00;3.55;;;15.90;99.90;;;;;;4984781;28;20121;-55
2022/08/09 00:31:23;;;;;;;5.63;4.15;;;15.90;99.90;;;;;;4984220;28;20051;-55
2022/08/09 00:33:53;;;;;;;6.78;3.53;;;15.90;99.90;;;;;;4984673;28;20077;-55
2022/08/09 00:36:19;;;;;;;6.18;3.80;;;15.90;99.90;;;;;;4984310;28;20529;-54
2022/08/09 00:38:45;;;;;;;7.63;4.35;;;15.90;99.90;;;;;;4983816;28;20046;-55
2022/08/09 00:41:12;;;;;;;6.00;3.90;;;15.80;99.90;;;;;;4988343;28;20401;-54
2022/08/09 00:43:39;;;;;;;8.15;3.80;;;15.80;99.90;;;;;;4988442;28;20046;-54
2022/08/09 00:46:07;;;;;;;5.45;3.53;;;15.70;99.90;;;;;;4988565;28;20069;-54
2022/08/09 00:48:33;;;;;;;5.75;3.95;;;15.60;99.90;;;;;;4988727;28;20405;-55
2022/08/09 00:51:06;;;;;;;5.68;3.72;;;15.70;99.90;;;;;;4987961;28;20054;-55
2022/08/09 00:53:34;;;;;;;6.30;3.92;;;15.70;99.90;;;;;;4988512;28;20100;-55
2022/08/09 00:56:00;;;;;;;7.30;4.10;;;15.60;99.90;;;;;;4988369;28;20401;-55
2022/08/09 00:58:25;;;;;;;5.43;3.70;;;15.60;99.90;;;;;;4988108;28;20046;-54
2022/08/09 01:00:53;;;;;;;6.05;4.18;;;15.60;99.90;;;;;;4987792;28;20497;-55
2022/08/09 01:03:22;;;;;;;8.27;4.50;;;15.60;99.90;;;;;;4993627;22;20144;-55
2022/08/09 01:06:09;;;;;;;7.53;4.40;;;15.60;99.90;;;;;;4971109;28;20124;-54
2022/08/09 01:08:53;;;;;;;8.00;4.60;;;15.60;99.90;;;;;;4980178;28;20035;-54
2022/08/09 01:11:27;;;;;;;6.55;4.15;;;15.60;99.90;;;;;;4987039;28;20061;-55
2022/08/09 01:14:06;;;;;;;6.93;4.32;;;15.60;99.90;;;;;;4986565;28;20042;-54
2022/08/09 01:16:38;;;;;;;5.60;3.70;;;15.50;99.90;;;;;;4987870;28;20093;-55
2022/08/09 01:19:23;;;;;;;6.28;4.72;;;15.50;99.90;;;;;;4987766;28;20088;-53
2022/08/09 01:21:59;;;;;;;6.45;4.57;;;15.50;99.90;;;;;;4987552;28;20436;-54
2022/08/09 01:24:44;;;;;;;8.18;4.50;;;15.40;99.90;;;;;;4986167;28;20142;-54
2022/08/09 01:27:14;;;;;;;6.55;4.38;;;15.40;99.90;;;;;;4987410;28;20045;-54
2022/08/09 01:29:47;;;;;;;7.32;4.38;;;15.40;99.90;;;;;;4987173;28;20408;-53
2022/08/09 01:32:17;;;;;;;6.10;4.53;;;15.40;99.90;;;;;;4986725;28;20072;-50
2022/08/09 01:34:45;;;;;;;7.95;4.35;;;15.40;99.90;;;;;;4987467;28;20066;-54
2022/08/09 01:37:14;;;;;;;5.80;4.38;;;15.30;99.90;;;;;;4969813;28;20065;-53
2022/08/09 01:39:41;;;;;;;7.22;4.88;;;15.20;99.90;;;;;;4968687;28;20057;-54
2022/08/09 01:42:07;;;;;;;7.65;4.70;;;15.10;99.90;;;;;;4987028;28;20042;-54
2022/08/09 01:44:34;;;;;;;6.70;4.43;;;15.10;99.90;;;;;;4987331;28;20065;-54
2022/08/09 01:47:01;;;;;;;9.13;4.60;;;15.00;99.90;;;;;;4986609;28;20053;-56
2022/08/09 01:49:30;;;;;;;8.27;5.65;;;15.00;99.90;;;;;;4986578;28;20090;-54
2022/08/09 01:51:58;;;;;;;9.07;6.20;;;14.90;99.90;;;;;;4986794;28;20125;-55
2022/08/09 01:54:30;;;;;;;9.25;5.93;;;14.90;99.90;;;;;;4986236;28;20136;-55
2022/08/09 01:56:59;;;;;;;9.88;5.97;;;14.80;99.90;;;;;;4986722;28;20434;-52
2022/08/09 01:59:26;;;;;;;6.93;5.63;;;14.80;99.90;;;;;;4953118;28;20062;-54
2022/08/09 02:01:54;;;;;;;6.85;5.93;;;14.80;99.90;;;;;;4986719;28;20054;-54
2022/08/09 02:04:23;;;;;;;10.80;6.22;;;14.70;99.90;;;;;;4986159;28;20149;-55
2022/08/09 02:07:10;;;;;;;7.05;5.32;;;14.80;99.90;;;;;;4960122;28;20042;-54
2022/08/09 02:09:40;;;;;;;9.98;6.90;;;14.70;99.90;;;;;;4967173;28;20371;-54
2022/08/09 02:12:08;;;;;;;7.88;6.00;;;14.70;99.90;;;;;;4967352;28;20057;-55
2022/08/09 02:14:36;;;;;;;7.05;5.78;;;14.80;99.90;;;;;;4967597;28;20042;-55
2022/08/09 02:17:02;;;;;;;7.10;5.68;;;14.80;99.90;;;;;;4968008;28;20402;-53
2022/08/09 02:19:28;;;;;;;8.52;6.10;;;14.80;99.90;;;;;;4967431;28;20050;-54
2022/08/09 02:21:58;;;;;;;7.57;5.32;;;14.80;99.90;;;;;;4966951;28;20386;-53
2022/08/09 02:24:34;;;;;;;6.28;5.65;;;14.80;99.90;;;;;;4981255;28;20121;-55
2022/08/09 02:27:04;;;;;;;7.53;6.00;;;14.80;99.90;;;;;;4967192;28;20038;-53
2022/08/09 02:29:34;;;;;;;8.38;5.55;;;14.70;99.90;;;;;;4967088;28;20039;-54
2022/08/09 02:32:02;;;;;;;8.00;5.90;;;14.70;99.90;;;;;;4966901;28;20039;-54
2022/08/09 02:34:31;;;;;;;7.20;5.10;;;14.70;99.90;;;;;;4966863;28;20047;-55
2022/08/09 02:36:59;;;;;;;5.88;5.18;;;14.80;99.90;;;;;;4966976;28;20113;-54
2022/08/09 02:39:40;;;;;;;7.05;5.10;;;14.80;99.90;;;;;;4965909;28;20532;-54
2022/08/09 02:42:11;;;;;;;6.15;5.10;;;14.80;99.90;;;;;;4967257;28;20039;-53
2022/08/09 02:44:41;;;;;;;7.10;5.55;;;14.80;99.90;;;;;;4967112;28;20058;-55
2022/08/09 02:47:12;;;;;;;7.50;5.07;;;14.80;99.90;;;;;;4966293;28;20125;-54
2022/08/09 02:49:44;;;;;;;7.05;4.63;;;14.80;99.90;;;;;;4966819;28;20047;-55
2022/08/09 02:52:14;;;;;;;6.32;5.22;;;14.70;99.90;;;;;;4966607;28;20043;-55
2022/08/09 02:54:41;;;;;;;8.68;5.90;;;14.60;99.90;;;;;;4965871;28;20038;-55
2022/08/09 02:57:09;;;;;;;9.95;6.25;;;14.60;99.90;;;;;;4966482;28;20440;-58
2022/08/09 02:59:37;;;;;;;10.38;5.90;;;14.50;99.90;;;;;;4967007;28;20089;-53
2022/08/09 03:02:09;;;;;;;7.97;6.10;;;14.50;99.90;;;;;;4966164;28;20110;-55
2022/08/09 03:04:36;;;;;;;7.50;5.38;;;14.50;99.90;;;;;;4981446;28;20094;-54
2022/08/09 03:07:03;;;;;;;8.82;5.22;;;14.60;99.90;;;;;;4974740;28;20046;-54
2022/08/09 03:09:30;;;;;;;7.32;5.70;;;14.60;99.90;;;;;;4968152;28;20646;-54
2022/08/09 03:11:58;;;;;;;6.15;4.95;;;14.60;99.90;;;;;;4975676;28;20083;-54
2022/08/09 03:14:25;;;;;;;9.85;5.75;;;14.70;99.90;;;;;;4985565;28;20054;-55
2022/08/09 03:16:53;;;;;;;7.05;4.95;;;14.70;99.90;;;;;;4985339;28;20097;-54
2022/08/09 03:19:20;;;;;;;6.55;5.45;;;14.70;99.90;;;;;;4985539;28;20142;-55
2022/08/09 03:21:49;;;;;;;6.82;5.30;;;14.70;99.90;;;;;;4985863;28;20050;-55
2022/08/09 03:24:15;;;;;;;9.68;5.80;;;14.70;99.90;;;;;;4984955;28;20050;-55
2022/08/09 03:26:42;;;;;;;8.00;5.75;;;14.70;99.90;;;;;;4985280;28;20053;-54
2022/08/09 03:29:09;;;;;;;5.70;5.20;;;14.70;99.90;;;;;;4985832;28;20057;-52
2022/08/09 03:31:36;;;;;;;7.57;5.68;;;14.60;99.90;;;;;;4985747;28;20107;-54
2022/08/09 03:34:03;;;;;;;7.97;5.32;;;14.60;99.90;;;;;;4984796;28;20125;-54
2022/08/09 03:36:29;;;;;;;8.15;5.32;;;14.60;99.90;;;;;;4983737;28;20054;-55
2022/08/09 03:38:55;;;;;;;6.35;5.50;;;14.60;99.90;;;;;;4984712;28;20058;-54
2022/08/09 03:41:21;;;;;;;7.00;5.70;;;14.50;99.90;;;;;;4985267;28;20175;-55
2022/08/09 03:43:47;;;;;;;7.43;5.60;;;14.50;99.90;;;;;;4985246;28;20207;-54
2022/08/09 03:46:13;;;;;;;12.00;6.45;;;14.60;99.90;;;;;;4984828;28;20046;-52
2022/08/09 03:48:40;;;;;;;7.85;6.18;;;14.40;99.90;;;;;;4984676;28;20046;-54
2022/08/09 03:51:08;;;;;;;8.07;6.00;;;14.40;99.90;;;;;;4985684;28;20039;-54
2022/08/09 03:53:36;;;;;;;8.65;6.20;;;14.40;99.90;;;;;;4983652;28;20050;-52
2022/08/09 03:56:03;;;;;;;6.55;5.70;;;14.40;99.90;;;;;;4985709;28;20058;-54
2022/08/09 03:58:29;;;;;;;7.80;5.82;;;14.40;99.90;;;;;;4984729;28;20061;-55
2022/08/09 04:00:55;;;;;;;8.55;6.00;;;14.40;99.90;;;;;;4985234;28;20046;-55
2022/08/09 04:03:21;;;;;;;9.00;6.07;;;14.40;99.90;;;;;;4984178;28;20058;-54
2022/08/09 04:05:47;;;;;;;8.02;5.57;;;14.40;99.90;;;;;;4982988;28;20476;-53
2022/08/09 04:08:12;;;;;;;7.60;5.57;;;14.40;99.90;;;;;;4980025;28;20137;-54
2022/08/09 04:10:38;;;;;;;9.82;6.45;;;14.40;99.90;;;;;;4984514;28;20052;-55
2022/08/09 04:13:10;;;;;;;7.68;5.88;;;14.30;99.90;;;;;;4985118;28;20315;-54
2022/08/09 04:15:37;;;;;;;7.68;5.57;;;14.40;99.90;;;;;;4985082;28;20088;-55
2022/08/09 04:18:04;;;;;;;7.03;4.97;;;14.40;99.90;;;;;;4985258;28;20104;-53
2022/08/09 04:20:30;;;;;;;8.38;5.40;;;14.40;99.90;;;;;;4984146;28;20073;-55
2022/08/09 04:22:57;;;;;;;8.48;5.80;;;14.40;99.90;;;;;;4999802;28;20089;-55
2022/08/09 04:25:22;;;;;;;7.97;5.35;;;14.40;99.90;;;;;;4983922;28;20065;-54
2022/08/09 04:27:48;;;;;;;6.80;5.10;;;14.50;99.90;;;;;;4984704;28;20054;-55
2022/08/09 04:30:18;;;;;;;6.78;5.07;;;14.50;99.90;;;;;;4984527;28;20089;-54
2022/08/09 04:32:44;;;;;;;7.35;5.10;;;14.40;99.90;;;;;;4967604;28;20477;-54
2022/08/09 04:35:11;;;;;;;7.03;5.07;;;14.40;99.90;;;;;;4984620;28;20053;-55
2022/08/09 04:37:38;;;;;;;5.68;5.00;;;14.50;99.90;;;;;;4984461;28;20085;-54
2022/08/09 04:40:05;;;;;;;6.50;5.22;;;14.50;99.90;;;;;;4983870;28;20050;-54
2022/08/09 04:42:31;;;;;;;6.15;5.20;;;14.50;99.90;;;;;;4984413;28;20086;-54
2022/08/09 04:44:58;;;;;;;8.13;5.55;;;14.60;99.90;;;;;;4984670;28;20140;-54
2022/08/09 04:47:25;;;;;;;8.25;6.18;;;14.50;99.90;;;;;;4999596;28;20421;-55
2022/08/09 04:49:51;;;;;;;7.60;5.80;;;14.60;99.90;;;;;;4984795;28;20074;-54
2022/08/09 04:52:17;;;;;;;8.25;6.13;;;14.60;99.90;;;;;;4983851;28;20650;-54
2022/08/09 04:54:43;;;;;;;7.32;5.55;;;14.80;99.90;;;;;;4983809;28;20133;-54
2022/08/09 04:57:10;;;;;;;7.10;6.18;;;14.90;99.90;;;;;;4984650;28;20447;-52
2022/08/09 04:59:35;;;;;;;7.80;6.47;;;15.10;99.90;;;;;;4984776;28;20141;-54
2022/08/09 05:02:01;;;;;;;6.68;5.32;;;15.50;99.90;;;;;;4984264;28;20129;-54
2022/08/09 05:04:27;;;;;;;8.95;6.18;;;16.10;99.90;;;;;;4984070;28;20145;-55
2022/08/09 05:06:52;;;;;;;7.35;5.85;;;16.70;99.90;;;;;;4977883;28;20050;-54
2022/08/09 05:09:18;;;;;;;6.50;4.78;;;17.20;99.90;;;;;;4983056;28;20065;-54
2022/08/09 05:11:44;;;;;;;5.60;4.97;;;17.50;99.90;;;;;;4964367;28;20584;-54
2022/08/09 05:14:09;;;;;;;8.48;5.45;;;17.90;99.90;;;;;;4964605;28;20078;-52
2022/08/09 05:16:35;;;;;;;5.97;4.65;;;18.30;99.90;;;;;;4965481;28;20082;-54
2022/08/09 05:19:01;;;;;;;6.97;5.05;;;18.60;99.90;;;;;;4964916;28;20054;-55
2022/08/09 05:21:27;;;;;;;7.07;5.18;;;18.80;99.90;;;;;;4964715;28;20050;-55
2022/08/09 05:23:53;;;;;;;7.22;5.07;;;19.10;99.90;;;;;;4964153;28;20053;-52
2022/08/09 05:26:19;;;;;;;6.13;4.60;;;19.40;99.90;;;;;;4966623;28;20039;-53
2022/08/09 05:28:45;;;;;;;7.53;4.68;;;19.60;99.90;;;;;;4968385;28;20082;-54
2022/08/09 05:31:11;;;;;;;7.35;5.05;;;19.90;99.90;;;;;;4968421;28;20652;-55
2022/08/09 05:33:37;;;;;;;11.18;5.40;;;20.10;99.90;;;;;;4968360;28;20077;-57
2022/08/09 05:36:03;;;;;;;11.00;4.53;;;20.20;99.90;;;;;;4966958;28;20059;-54
2022/08/09 05:38:29;;;;;;;5.68;4.22;;;20.40;99.90;;;;;;4967397;28;20117;-55
2022/08/09 05:40:55;;;;;;;6.97;4.82;;;20.40;99.90;;;;;;4967883;28;20223;-55
2022/08/09 05:43:20;;;;;;;7.82;4.78;;;20.60;99.90;;;;;;4967873;28;20537;-54
2022/08/09 05:45:46;;;;;;;7.88;4.20;;;20.90;99.90;;;;;;4967917;28;20054;-55
2022/08/09 05:48:12;;;;;;;8.43;4.35;;;20.80;99.90;;;;;;4967391;28;20070;-54
2022/08/09 05:50:40;;;;;;;4.90;3.70;;;21.00;99.90;;;;;;4967840;28;20556;-55
2022/08/09 05:53:06;;;;;;;6.13;4.45;;;21.30;99.90;;;;;;4967635;28;20101;-55
2022/08/09 05:55:32;;;;;;;8.07;3.83;;;21.40;99.90;;;;;;4967922;28;20536;-54
2022/08/09 05:57:58;;;;;;;8.93;4.70;;;21.30;99.90;;;;;;4967466;28;20047;-55
2022/08/09 06:00:30;;;;;;;6.57;4.13;;;21.40;99.90;;;;;;4966218;28;20548;-55
2022/08/09 06:02:56;;;;;;;5.53;3.97;;;21.60;99.90;;;;;;4967420;28;20105;-54
2022/08/09 06:05:23;;;;;;;5.40;4.07;;;21.70;99.90;;;;;;4967323;28;20133;-55
2022/08/09 06:07:48;;;;;;;6.65;4.07;;;21.90;99.90;;;;;;4975488;28;20113;-54
2022/08/09 06:10:14;;;;;;;13.10;3.95;;;22.10;99.90;;;;;;4967339;28;20133;-54
2022/08/09 06:12:41;;;;;;;6.63;3.53;;;22.00;99.90;;;;;;4967753;28;20086;-55
2022/08/09 06:15:07;;;;;;;6.07;3.53;;;22.30;99.90;;;;;;4967323;28;20043;-56
2022/08/09 06:17:33;;;;;;;5.95;3.20;;;22.10;99.90;;;;;;4950234;28;20105;-55
2022/08/09 06:19:58;;;;;;;7.55;3.50;;;22.20;99.90;;;;;;4965586;28;20065;-55
2022/08/09 06:22:24;;;;;;;4.40;2.75;;;22.10;99.90;;;;;;4967038;28;20128;-54
2022/08/09 06:24:50;;;;;;;4.18;2.47;;;22.40;99.90;;;;;;4966672;28;20050;-54
2022/08/09 06:27:15;;;;;;;3.08;2.00;;;22.50;99.90;;;;;;4967349;28;20514;-54
2022/08/09 06:29:41;;;;;;;4.13;2.30;;;22.60;99.90;;;;;;4967281;28;20089;-53
2022/08/09 06:32:07;;;;;;;4.53;2.55;;;22.40;99.90;;;;;;4966563;28;20039;-53
2022/08/09 06:34:32;;;;;;;5.78;2.90;;;22.50;99.90;;;;;;4967295;28;20058;-52
2022/08/09 06:36:58;;;;;;;4.53;2.00;;;22.40;99.90;;;;;;4966122;28;20047;-55
2022/08/09 06:39:24;;;;;;;3.75;2.00;;;22.70;99.90;;;;;;4966134;28;20051;-55
2022/08/09 06:41:49;;;;;;;4.60;2.00;;;22.70;99.90;;;;;;4967005;28;20096;-54
2022/08/09 06:44:15;;;;;;;5.35;1.90;;;22.40;99.90;;;;;;4966626;28;20058;-54
2022/08/09 06:46:41;;;;;;;2.65;1.63;;;22.70;99.90;;;;;;4966973;28;20045;-56
2022/08/09 06:49:06;;;;;;;3.67;1.63;;;22.70;99.90;;;;;;4966987;28;20046;-57
2022/08/09 06:51:34;;;;;;;4.88;1.35;;;22.90;99.90;;;;;;4967066;28;20035;-55
2022/08/09 06:53:59;;;;;;;3.35;1.50;;;23.10;99.90;;;;;;4965681;28;20121;-54
2022/08/09 06:56:25;;;;;;;2.72;1.30;;;23.10;99.90;;;;;;4966774;28;20529;-55
2022/08/09 06:58:51;;;;;;;2.92;1.30;;;23.20;99.90;;;;;;4966691;28;20047;-55
2022/08/09 07:01:16;;;;;;;2.22;0.98;;;23.30;99.90;;;;;;4966477;28;20401;-55
2022/08/09 07:03:42;;;;;;;2.55;1.00;;;23.40;99.90;;;;;;4965091;28;20061;-56
2022/08/09 07:06:08;;;;;;;3.13;1.00;;;23.30;99.90;;;;;;4968035;28;20589;-54
2022/08/09 07:08:34;;;;;;;3.78;0.98;;;23.30;99.90;;;;;;4974538;28;20383;-53
2022/08/09 07:11:02;;;;;;;3.45;1.20;;;23.40;99.90;;;;;;4965435;28;20405;-56
2022/08/09 07:13:27;;;;;;;2.40;1.02;;;23.60;99.90;;;;;;4966066;28;20058;-54
2022/08/09 07:15:53;;;;;;;2.92;1.00;;;23.10;99.90;;;;;;4964790;28;20142;-55
2022/08/09 07:18:18;;;;;;;3.33;1.17;;;22.90;99.90;;;;;;4965992;28;20062;-53
2022/08/09 07:20:44;;;;;;;2.10;1.00;;;22.70;99.90;;;;;;4966261;28;20042;-54
2022/08/09 07:23:11;;;;;;;1.17;0.90;;;22.60;99.90;;;;;;4965570;28;20034;-53
2022/08/09 07:25:37;;;;;;;3.22;1.02;;;22.80;99.90;;;;;;4966317;28;20058;-57
2022/08/09 07:28:03;;;;;;;3.05;0.88;;;23.20;99.90;;;;;;4966232;28;20046;-53
2022/08/09 07:30:28;;;;;;;2.60;1.00;;;23.40;99.90;;;;;;4966279;28;20082;-54
2022/08/09 07:32:54;;;;;;;1.88;0.80;;;23.80;99.90;;;;;;4948825;28;20039;-53
2022/08/09 07:35:19;;;;;;;1.88;0.80;;;23.90;99.90;;;;;;4966159;28;20046;-54
2022/08/09 07:37:45;;;;;;;10.70;1.23;;;23.60;99.90;;;;;;4965517;28;20049;-54
2022/08/09 07:40:16;;;;;;;1.90;0.90;;;23.80;99.90;;;;;;4965726;28;20046;-55
2022/08/09 07:42:55;;;;;;;1.13;0.80;;;24.10;99.90;;;;;;4965952;28;20090;-55
2022/08/09 07:45:25;;;;;;;2.20;1.00;;;24.10;99.90;;;;;;4965603;28;20412;-54
2022/08/09 07:47:52;;;;;;;2.50;1.00;;;24.00;99.90;;;;;;4964885;28;20591;-54
2022/08/09 07:50:23;;;;;;;2.03;0.93;;;24.10;99.90;;;;;;4965890;28;20053;-55
2022/08/09 07:52:49;;;;;;;1.30;0.85;;;23.80;99.90;;;;;;4964949;28;20046;-54
2022/08/09 07:55:16;;;;;;;3.35;0.95;;;24.00;99.90;;;;;;4965476;28;20078;-53
2022/08/09 07:57:41;;;;;;;1.40;0.80;;;24.30;99.90;;;;;;4965419;28;20126;-54
2022/08/09 08:00:08;;;;;;;1.85;1.00;;;24.40;99.90;;;;;;4964057;28;20482;-54
2022/08/09 08:02:34;;;;;;;2.28;0.90;;;24.20;99.90;;;;;;4965607;28;20097;-54
2022/08/09 08:05:00;;;;;;;3.40;1.20;;;24.20;99.90;;;;;;4965709;28;20134;-53
2022/08/09 08:07:25;;;;;;;2.55;0.80;;;24.10;99.90;;;;;;4975430;28;20518;-56
2022/08/09 08:09:52;;;;;;;2.05;0.90;;;24.10;99.90;;;;;;4965252;28;20046;-54
2022/08/09 08:12:18;;;;;;;2.17;0.98;;;24.10;99.90;;;;;;4965484;28;20042;-54
2022/08/09 08:14:44;;;;;;;1.65;0.90;;;24.10;99.90;;;;;;4965739;28;20054;-53
2022/08/09 08:17:10;;;;;;;1.10;0.80;;;24.20;99.90;;;;;;4965638;28;20046;-54
2022/08/09 08:19:35;;;;;;;1.20;0.80;;;24.20;99.90;;;;;;4965439;28;20130;-55
2022/08/09 08:22:02;;;;;;;2.55;1.02;;;23.80;99.90;;;;;;4965780;28;20043;-54
2022/08/09 08:24:28;;;;;;;2.28;0.90;;;24.10;99.90;;;;;;4964661;28;20648;-52
2022/08/09 08:26:54;;;;;;;0.85;0.60;;;23.80;99.90;;;;;;4948333;28;20042;-52
2022/08/09 08:29:19;;;;;;;1.02;0.80;;;24.10;99.90;;;;;;4965221;28;20051;-56
2022/08/09 08:31:45;;;;;;;1.10;0.75;;;23.90;99.90;;;;;;4964584;28;20043;-56
2022/08/09 08:34:11;;;;;;;1.95;0.90;;;23.60;99.90;;;;;;4965444;28;20047;-56
2022/08/09 08:36:37;;;;;;;3.25;0.93;;;23.30;99.90;;;;;;4965323;28;20055;-57
2022/08/09 08:39:03;;;;;;;1.15;0.73;;;23.30;99.90;;;;;;4965105;28;20039;-56
2022/08/09 08:41:29;;;;;;;1.42;1.00;;;22.80;99.90;;;;;;4964716;28;20054;-57
2022/08/09 08:43:57;;;;;;;1.60;0.90;;;22.80;99.90;;;;;;4964534;28;20453;-56
2022/08/09 08:46:29;;;;;;;2.38;0.80;;;22.70;99.90;;;;;;4964534;28;20039;-56
2022/08/09 08:48:56;;;;;;;1.60;0.90;;;22.40;99.90;;;;;;4965187;28;20050;-57
2022/08/09 08:51:22;;;;;;;1.80;0.90;;;22.10;99.90;;;;;;4964309;28;20093;-57
2022/08/09 08:53:51;;;;;;;1.20;0.90;;;22.20;99.90;;;;;;4964512;28;20047;-57
2022/08/09 08:56:18;;;;;;;1.30;0.73;;;22.40;99.90;;;;;;4964745;28;20564;-55
2022/08/09 08:58:44;;;;;;;1.92;1.10;;;22.60;99.90;;;;;;4968109;28;20436;-57
2022/08/09 09:01:10;;;;;;;1.90;0.90;;;22.40;99.90;;;;;;4985660;28;20049;-57
2022/08/09 09:03:37;;;;;;;1.20;0.80;;;22.20;99.90;;;;;;4987180;28;20057;-57
2022/08/09 09:06:04;;;;;;;1.42;0.88;;;22.50;99.90;;;;;;4984161;28;20176;-56
2022/08/09 09:08:35;;;;;;;1.10;0.70;;;22.70;99.90;;;;;;4976028;28;20061;-57
2022/08/09 09:11:03;;;;;;;1.35;0.73;;;23.10;99.90;;;;;;4968212;28;20434;-56
2022/08/09 09:13:33;;;;;;;1.20;0.80;;;23.00;99.90;;;;;;4974974;28;20042;-57
2022/08/09 09:16:00;;;;;;;1.63;0.85;;;23.30;99.90;;;;;;4987609;28;20034;-56
2022/08/09 09:18:25;;;;;;;1.35;0.70;;;23.70;99.90;;;;;;4987124;28;20040;-56
2022/08/09 09:20:51;;;;;;;1.00;0.70;;;23.50;99.90;;;;;;4987480;28;20121;-56
2022/08/09 09:23:28;;;;;;;17.30;1.33;;;23.20;99.90;;;;;;4985824;28;20092;-57
2022/08/09 09:25:54;;;;;;;1.60;0.70;;;23.50;99.90;;;;;;4987384;28;20077;-56
2022/08/09 09:28:20;;;;;;;2.25;0.75;;;23.50;99.90;;;;;;4987169;28;20584;-56
2022/08/09 09:30:54;;;;;;;1.90;0.85;;;23.60;99.90;;;;;;4987397;28;20118;-57
2022/08/09 09:33:29;;;;;;;;;;;23.70;99.90;;;;;;4987135;28;20043;-57
2022/08/09 09:35:59;;;;;;;1.73;0.80;;;24.10;99.90;;;;;;4987251;28;19925;-56
2022/08/09 09:38:45;;;;;;;0.90;0.73;;;24.60;99.90;;;;;;4984864;28;20046;-57
2022/08/09 09:41:27;;;;;;;2.75;0.73;;;24.70;99.90;;;;;;4986932;28;20042;-58
2022/08/09 09:43:57;;;;;;;2.03;0.80;;;24.90;99.90;;;;;;4987133;28;20096;-58
2022/08/09 09:46:30;;;;;;;1.60;0.80;;;25.10;99.90;;;;;;4986285;28;20078;-58
2022/08/09 09:49:03;;;;;;;1.65;0.80;;;25.20;99.90;;;;;;5018623;28;20058;-58
2022/08/09 09:51:29;;;;;;;7.05;1.02;;;25.30;99.90;;;;;;4986492;28;20061;-57
2022/08/09 09:54:22;;;;;;;1.77;0.68;;;25.30;99.90;;;;;;4985852;28;20050;-57
2022/08/09 09:56:48;;;;;;;1.55;0.80;;;25.60;99.90;;;;;;4985829;28;20136;-56
2022/08/09 09:59:21;;;;;;;1.58;0.80;;;25.80;99.90;;;;;;4986484;28;20053;-56
2022/08/09 10:01:58;;;;;;;2.78;0.90;;;26.10;99.90;;;;;;4986409;28;20453;-56
2022/08/09 10:04:24;;;;;;;1.13;0.77;;;26.10;99.90;;;;;;4986360;28;20141;-56
2022/08/09 10:06:49;;;;;;;0.98;0.70;;;26.10;99.90;;;;;;5002321;28;20141;-56
2022/08/09 10:09:15;;;;;;;0.95;0.52;;;26.40;99.90;;;;;;4970799;28;20625;-54
2022/08/09 10:11:42;;;;;;;2.17;0.73;;;26.60;99.90;;;;;;4966283;28;20055;-56
2022/08/09 10:14:24;;;;;;;1.85;0.70;;;26.70;99.90;;;;;;4977484;28;20053;-57
2022/08/09 10:16:50;;;;;;;6.57;0.70;;;26.30;99.90;;;;;;4986121;28;20129;-57
2022/08/09 10:19:16;;;;;;;1.45;0.82;;;26.40;99.90;;;;;;4985132;28;20089;-56
2022/08/09 10:21:49;;;;;;;0.95;0.65;;;26.60;99.90;;;;;;4984796;28;20639;-56
2022/08/09 10:24:17;;;;;;;1.60;0.70;;;26.90;99.90;;;;;;4984901;28;20042;-56
2022/08/09 10:26:45;;;;;;;1.40;0.60;;;27.10;99.90;;;;;;4986281;28;20053;-56
2022/08/09 10:29:12;;;;;;;0.70;0.60;;;26.40;99.90;;;;;;4986120;28;20089;-56
2022/08/09 10:31:41;;;;;;;1.67;0.80;;;26.80;99.90;;;;;;4985921;28;20085;-57
2022/08/09 10:34:11;;;;;;;1.15;0.63;;;26.60;99.90;;;;;;4985875;28;20142;-58
2022/08/09 10:36:37;;;;;;;0.90;0.57;;;26.70;99.90;;;;;;4985940;28;20054;-59
2022/08/09 10:39:03;;;;;;;0.88;0.60;;;26.60;99.90;;;;;;4985032;28;20054;-56
2022/08/09 10:41:29;;;;;;;0.90;0.63;;;26.90;99.90;;;;;;4984949;28;20058;-56
2022/08/09 10:43:56;;;;;;;2.35;0.73;;;27.20;99.90;;;;;;4985705;28;20409;-56
2022/08/09 10:46:45;;;;;;;3.00;0.70;;;26.70;99.90;;;;;;4985169;28;20049;-56
2022/08/09 10:49:32;;;;;;;0.88;0.60;;;26.80;99.90;;;;;;4985325;28;20112;-56
2022/08/09 10:52:17;;;;;;;2.67;0.95;;;27.00;99.90;;;;;;4985378;28;20461;-57
2022/08/09 10:54:43;;;;;;;1.90;1.10;;;27.20;99.90;;;;;;4984847;28;20149;-56
2022/08/09 10:57:12;;;;;;;2.55;1.35;;;27.10;99.90;;;;;;4985615;28;20504;-56
2022/08/09 10:59:38;;;;;;;1.77;1.05;;;26.90;99.90;;;;;;4985123;28;20046;-55
2022/08/09 11:02:06;;;;;;;1.00;0.60;;;27.10;99.90;;;;;;4952030;28;20145;-57
2022/08/09 11:04:33;;;;;;;1.88;1.40;;;27.10;99.90;;;;;;4984296;28;20478;-56
2022/08/09 11:06:58;;;;;;;6.45;2.90;;;27.40;99.90;;;;;;4978186;28;20048;-57
2022/08/09 11:09:36;;;;;;;4.68;2.40;;;27.30;99.90;;;;;;4968468;28;20473;-57
2022/08/09 11:12:08;;;;;;;2.15;1.35;;;27.50;99.90;;;;;;4965624;28;20417;-56
2022/08/09 11:14:55;;;;;;;4.55;3.08;;;27.20;99.90;;;;;;4965597;28;20120;-57
2022/08/09 11:17:20;;;;;;;4.93;1.92;;;27.40;99.90;;;;;;4965457;28;20724;-57
2022/08/09 11:20:02;;;;;;;4.65;1.77;;;27.50;99.90;;;;;;4971883;28;20038;-56
2022/08/09 11:22:42;;;;;;;4.43;2.60;;;27.80;99.90;;;;;;4983282;28;20130;-57
2022/08/09 11:25:32;;;;;;;1.55;1.10;;;27.90;99.90;;;;;;4984251;28;20069;-56
2022/08/09 11:27:58;;;;;;;2.08;1.30;;;27.70;99.90;;;;;;4985234;28;20065;-57
2022/08/09 11:30:25;;;;;;;2.50;0.77;;;28.00;99.90;;;;;;5016504;28;20042;-57
2022/08/09 11:33:02;;;;;;;3.45;1.58;;;28.00;99.90;;;;;;4984940;28;20085;-57
2022/08/09 11:35:32;;;;;;;1.30;0.80;;;28.30;99.90;;;;;;4984847;28;20076;-56
2022/08/09 11:38:31;;;;;;;1.75;1.02;;;27.90;99.90;;;;;;4999535;28;20744;-57
2022/08/09 11:41:10;;;;;;;2.25;1.30;;;28.00;99.90;;;;;;4985072;28;20053;-58
2022/08/09 11:43:39;;;;;;;1.25;0.60;;;28.00;99.90;;;;;;4983731;28;20053;-56
2022/08/09 11:46:06;;;;;;;2.67;1.20;;;27.80;99.90;;;;;;4984273;28;20076;-57
2022/08/09 11:48:44;;;;;;;3.60;1.08;;;27.90;99.90;;;;;;4984925;28;20046;-54
2022/08/09 11:51:10;;;;;;;1.10;0.70;;;28.20;99.90;;;;;;4985149;28;20050;-57
2022/08/09 11:53:38;;;;;;;3.45;1.00;;;28.20;99.90;;;;;;4984384;28;20049;-56
2022/08/09 11:56:12;;;;;;;2.80;0.70;;;28.40;99.90;;;;;;4985061;28;20057;-56
2022/08/09 11:59:10;;;;;;;1.95;0.85;;;28.50;99.90;;;;;;4984877;28;20478;-56
2022/08/09 12:01:38;;;;;;;2.08;0.90;;;28.50;99.90;;;;;;4980276;28;20142;-55
2022/08/09 12:04:06;;;;;;;4.00;1.38;;;27.90;99.90;;;;;;4984749;28;20052;-57
2022/08/09 12:06:34;;;;;;;3.63;1.15;;;27.80;99.90;;;;;;4978837;28;20108;-56
2022/08/09 12:09:05;;;;;;;3.42;0.80;;;27.80;99.90;;;;;;4971083;28;20536;-57
2022/08/09 12:11:31;;;;;;;1.42;0.70;;;28.00;99.90;;;;;;4964638;28;20038;-58
2022/08/09 12:14:03;;;;;;;1.92;0.50;;;27.80;99.90;;;;;;4965261;28;20105;-56
2022/08/09 12:16:34;;;;;;;1.35;0.80;;;28.20;99.90;;;;;;4965065;28;20118;-58
2022/08/09 12:19:01;;;;;;;2.08;0.52;;;28.30;99.90;;;;;;4964424;28;20055;-57
2022/08/09 12:21:31;;;;;;;1.05;0.70;;;28.10;99.90;;;;;;4964761;28;20085;-57
2022/08/09 12:24:00;;;;;;;0.80;0.50;;;28.20;99.90;;;;;;4964386;28;20051;-57
2022/08/09 12:26:43;;;;;;;1.08;0.50;;;27.40;99.90;;;;;;4965000;28;20050;-57
2022/08/09 12:29:15;;;;;;;1.58;0.70;;;27.20;99.90;;;;;;4964378;28;20537;-58
2022/08/09 12:31:42;;;;;;;0.95;0.50;;;27.40;99.90;;;;;;4964960;28;20138;-57
2022/08/09 12:34:08;;;;;;;1.02;0.50;;;27.60;99.90;;;;;;4965698;28;20055;-57
2022/08/09 12:36:47;;;;;;;0.95;0.50;;;27.70;99.90;;;;;;4969201;28;20391;-58
2022/08/09 12:39:13;;;;;;;2.00;0.70;;;27.50;99.90;;;;;;4968874;28;20117;-58
2022/08/09 12:41:39;;;;;;;0.90;0.70;;;27.70;99.90;;;;;;4968955;28;20054;-58
2022/08/09 12:44:05;;;;;;;1.90;0.60;;;27.30;99.90;;;;;;4969224;28;20537;-57
2022/08/09 12:46:31;;;;;;;6.13;0.80;;;27.50;99.90;;;;;;4968559;28;20054;-57
2022/08/09 12:48:57;;;;;;;0.40;0.40;;;27.80;99.90;;;;;;4968229;28;20517;-58
2022/08/09 12:51:23;;;;;;;1.20;0.60;;;27.90;99.90;;;;;;4968515;28;20182;-58
2022/08/09 12:54:00;;;;;;;0.57;0.50;;;27.90;99.90;;;;;;4950413;28;20038;-58
2022/08/09 12:56:26;;;;;;;1.17;0.63;;;27.60;99.90;;;;;;4968111;28;20894;-57